createdAt,value
2024-02-13T00:01:31.745Z,82.41
2024-02-13T00:04:01.066Z,82.44
2024-02-13T00:06:30.469Z,82.28
2024-02-13T00:08:59.781Z,82.31
2024-02-13T00:11:29.247Z,82.32
2024-02-13T00:13:58.681Z,82.14
2024-02-13T00:16:27.996Z,82.74
2024-02-13T00:18:58.966Z,82.12
2024-02-13T00:21:29.017Z,82.77
2024-02-13T00:23:58.798Z,82.55
2024-02-13T00:26:28.490Z,82.78
2024-02-13T00:28:57.803Z,82.70
2024-02-13T00:31:27.860Z,82.36
2024-02-13T00:33:57.192Z,82.82
2024-02-13T00:36:26.508Z,83.04
2024-02-13T00:38:56.911Z,82.80
2024-02-13T00:41:27.423Z,83.04
2024-02-13T00:43:56.755Z,82.69
2024-02-13T00:46:26.043Z,82.68
2024-02-13T00:48:57.105Z,83.06
2024-02-13T00:51:27.896Z,83.08
2024-02-13T00:53:57.427Z,82.89
2024-02-13T00:56:26.767Z,83.63
2024-02-13T00:58:59.289Z,82.77
2024-02-13T01:01:29.116Z,82.75
2024-02-13T01:03:58.498Z,82.94
2024-02-13T01:06:28.692Z,83.53
2024-02-13T01:08:58.131Z,82.85
2024-02-13T01:11:27.524Z,83.46
2024-02-13T01:13:57.659Z,83.75
2024-02-13T01:16:26.946Z,83.06
2024-02-13T01:18:56.941Z,83.19
2024-02-13T01:21:26.320Z,83.01
2024-02-13T01:23:55.617Z,82.94
2024-02-13T01:26:24.885Z,83.21
2024-02-13T01:28:54.276Z,83.00
2024-02-13T01:31:23.528Z,83.23
2024-02-13T01:33:52.924Z,83.27
2024-02-13T01:36:22.294Z,83.27
2024-02-13T01:38:51.932Z,83.47
2024-02-13T01:41:21.762Z,83.05
2024-02-13T01:43:51.331Z,82.97
2024-02-13T01:46:21.945Z,83.97
2024-02-13T01:48:51.384Z,83.50
2024-02-13T01:51:20.664Z,83.18
2024-02-13T01:53:50.031Z,83.60
2024-02-13T01:56:21.066Z,83.39
2024-02-13T01:58:51.600Z,83.24
2024-02-13T02:01:21.559Z,83.20
2024-02-13T02:03:51.730Z,83.42
2024-02-13T02:06:21.141Z,83.11
2024-02-13T02:08:50.656Z,82.69
2024-02-13T02:11:20.041Z,83.09
2024-02-13T02:13:50.655Z,83.04
2024-02-13T02:16:19.991Z,82.63
2024-02-13T02:18:49.367Z,82.83
2024-02-13T02:21:18.766Z,82.87
2024-02-13T02:23:48.108Z,83.08
2024-02-13T02:26:17.445Z,83.39
2024-02-13T02:28:47.675Z,83.33
2024-02-13T02:31:17.232Z,83.10
2024-02-13T02:33:47.744Z,83.13
2024-02-13T02:36:17.733Z,83.14
2024-02-13T02:38:47.077Z,83.22
2024-02-13T02:41:16.564Z,82.78
2024-02-13T02:43:46.032Z,82.75
2024-02-13T02:46:15.335Z,82.92
2024-02-13T02:48:44.764Z,83.38
2024-02-13T02:51:14.090Z,83.24
2024-02-13T02:53:43.748Z,83.04
2024-02-13T02:56:14.728Z,83.05
2024-02-13T02:58:44.562Z,83.03
2024-02-13T03:01:14.883Z,82.97
2024-02-13T03:03:44.319Z,83.09
2024-02-13T03:06:14.735Z,83.06
2024-02-13T03:08:45.470Z,82.66
2024-02-13T03:11:14.808Z,82.68
2024-02-13T03:13:44.972Z,82.88
2024-02-13T03:16:14.412Z,83.09
2024-02-13T03:18:43.819Z,82.86
2024-02-13T03:21:13.207Z,83.22
2024-02-13T03:23:44.464Z,83.00
2024-02-13T03:26:13.888Z,83.29
2024-02-13T03:28:43.143Z,83.39
2024-02-13T03:31:12.531Z,82.97
2024-02-13T03:33:41.966Z,83.30
2024-02-13T03:36:12.326Z,82.86
2024-02-13T03:38:43.368Z,83.29
2024-02-13T03:41:12.619Z,83.27
2024-02-13T03:43:45.994Z,83.17
2024-02-13T03:46:16.227Z,83.23
2024-02-13T03:48:45.680Z,83.18
2024-02-13T03:51:15.063Z,83.17
2024-02-13T03:53:44.713Z,83.24
2024-02-13T03:56:14.012Z,83.32
2024-02-13T03:58:43.449Z,83.36
2024-02-13T04:01:12.710Z,83.35
2024-02-13T04:03:42.056Z,82.84
2024-02-13T04:06:13.219Z,82.75
2024-02-13T04:08:44.504Z,82.74
2024-02-13T04:11:14.262Z,83.46
2024-02-13T04:13:43.623Z,83.62
2024-02-13T04:16:13.692Z,83.54
2024-02-13T04:18:43.140Z,83.41
2024-02-13T04:21:18.520Z,83.15
2024-02-13T04:23:49.901Z,83.35
2024-02-13T04:26:30.277Z,83.64
2024-02-13T04:28:50.458Z,83.69
2024-02-13T04:31:19.820Z,84.02
2024-02-13T04:33:49.319Z,84.00
2024-02-13T04:36:19.205Z,83.59
2024-02-13T04:38:48.806Z,83.53
2024-02-13T04:41:20.627Z,83.50
2024-02-13T04:43:51.098Z,83.54
2024-02-13T04:46:20.727Z,83.83
2024-02-13T04:48:50.107Z,83.85
2024-02-13T04:51:19.615Z,83.90
2024-02-13T04:53:49.169Z,83.78
2024-02-13T04:56:18.829Z,83.73
2024-02-13T04:58:48.509Z,83.58
2024-02-13T05:01:17.913Z,83.60
2024-02-13T05:03:51.784Z,84.15
2024-02-13T05:06:38.915Z,84.14
2024-02-13T05:09:08.216Z,84.24
2024-02-13T05:11:37.562Z,84.37
2024-02-13T05:14:07.956Z,83.93
2024-02-13T05:16:39.565Z,83.81
2024-02-13T05:19:09.887Z,83.92
2024-02-13T05:21:40.305Z,84.10
2024-02-13T05:24:10.800Z,83.93
2024-02-13T05:26:40.376Z,84.08
2024-02-13T05:29:09.827Z,83.85
2024-02-13T05:31:39.093Z,83.51
2024-02-13T05:34:10.081Z,83.73
2024-02-13T05:36:39.457Z,83.54
2024-02-13T05:39:09.196Z,83.70
2024-02-13T05:41:38.856Z,83.83
2024-02-13T05:44:08.606Z,83.79
2024-02-13T05:46:38.403Z,83.52
2024-02-13T05:49:07.739Z,83.60
2024-02-13T05:51:37.160Z,83.62
2024-02-13T05:54:07.144Z,83.54
2024-02-13T05:56:36.622Z,83.62
2024-02-13T05:59:06.766Z,83.54
2024-02-13T06:01:36.167Z,83.33
2024-02-13T06:04:07.714Z,83.14
2024-02-13T06:06:41.593Z,82.97
2024-02-13T06:09:10.944Z,83.01
2024-02-13T06:11:40.273Z,83.04
2024-02-13T06:14:09.708Z,83.02
2024-02-13T06:16:38.990Z,82.82
2024-02-13T06:19:08.422Z,82.57
2024-02-13T06:21:38.096Z,82.89
2024-02-13T06:24:07.796Z,82.84
2024-02-13T06:26:38.674Z,82.43
2024-02-13T06:29:09.336Z,82.72
2024-02-13T06:31:38.786Z,82.72
2024-02-13T06:34:08.164Z,82.56
2024-02-13T06:36:37.565Z,82.26
2024-02-13T06:39:06.953Z,82.54
2024-02-13T06:41:36.251Z,82.92
2024-02-13T06:44:06.998Z,82.55
2024-02-13T06:46:36.266Z,82.86
2024-02-13T06:49:05.727Z,82.85
2024-02-13T06:51:35.639Z,82.85
2024-02-13T06:54:05.348Z,82.83
2024-02-13T06:56:36.399Z,82.94
2024-02-13T06:59:07.400Z,82.72
2024-02-13T07:01:37.240Z,82.41
2024-02-13T07:04:07.665Z,82.47
2024-02-13T07:06:47.896Z,82.35
2024-02-13T07:09:08.340Z,82.69
2024-02-13T07:11:37.832Z,82.77
2024-02-13T07:14:07.394Z,82.65
2024-02-13T07:16:41.208Z,82.50
2024-02-13T07:19:11.546Z,82.48
2024-02-13T07:21:41.078Z,82.72
2024-02-13T07:24:11.745Z,82.71
2024-02-13T07:26:41.017Z,82.81
2024-02-13T07:29:11.866Z,82.69
2024-02-13T07:31:41.185Z,83.09
2024-02-13T07:34:10.725Z,82.84
2024-02-13T07:36:40.228Z,82.69
2024-02-13T07:39:11.149Z,82.67
2024-02-13T07:41:40.695Z,82.97
2024-02-13T07:44:10.060Z,82.56
2024-02-13T07:46:39.423Z,82.63
2024-02-13T07:49:09.697Z,82.45
2024-02-13T07:51:39.115Z,82.19
2024-02-13T07:54:08.408Z,82.31
2024-02-13T07:56:39.394Z,82.12
2024-02-13T07:59:10.585Z,81.90
2024-02-13T08:01:39.881Z,81.79
2024-02-13T08:04:09.244Z,81.64
2024-02-13T08:06:39.855Z,81.73
2024-02-13T08:09:09.946Z,81.54
2024-02-13T08:11:40.149Z,81.49
2024-02-13T08:14:11.518Z,81.02
2024-02-13T08:16:41.393Z,80.65
2024-02-13T08:19:11.694Z,80.05
2024-02-13T08:21:41.097Z,79.36
2024-02-13T08:24:11.069Z,79.50
2024-02-13T08:26:40.381Z,79.33
2024-02-13T08:29:10.435Z,78.87
2024-02-13T08:31:39.739Z,78.67
2024-02-13T08:34:09.409Z,78.81
2024-02-13T08:36:40.235Z,78.36
2024-02-13T08:39:11.202Z,78.53
2024-02-13T08:41:40.538Z,77.48
2024-02-13T08:44:10.527Z,77.11
2024-02-13T08:46:39.829Z,76.96
2024-02-13T08:49:09.450Z,77.65
2024-02-13T08:51:39.061Z,77.76
2024-02-13T08:54:10.229Z,77.69
2024-02-13T08:56:41.281Z,78.02
2024-02-13T08:59:11.146Z,77.72
2024-02-13T09:01:41.966Z,77.81
2024-02-13T09:04:13.555Z,77.43
2024-02-13T09:06:43.146Z,76.75
2024-02-13T09:09:14.012Z,75.22
2024-02-13T09:11:43.822Z,73.76
2024-02-13T09:14:14.523Z,73.31
2024-02-13T09:16:43.901Z,72.09
2024-02-13T09:19:13.351Z,71.62
2024-02-13T09:21:44.741Z,70.95
2024-02-13T09:26:44.848Z,69.77
2024-02-13T09:29:14.216Z,68.15
2024-02-13T09:31:46.433Z,67.27
2024-02-13T09:34:16.309Z,67.17
2024-02-13T09:36:45.820Z,65.21
2024-02-13T09:39:15.720Z,64.34
2024-02-13T09:41:45.169Z,65.52
2024-02-13T09:44:15.993Z,67.27
2024-02-13T09:46:45.758Z,70.06
2024-02-13T09:49:15.424Z,70.28
2024-02-13T09:51:47.700Z,70.43
2024-02-13T09:54:19.205Z,70.03
2024-02-13T09:56:48.678Z,69.10
2024-02-13T09:59:18.404Z,68.34
2024-02-13T10:01:48.077Z,67.83
2024-02-13T10:04:17.353Z,66.88
2024-02-13T10:06:46.843Z,63.85
2024-02-13T10:09:16.919Z,62.53
2024-02-13T10:11:47.916Z,62.53
2024-02-13T10:14:22.444Z,59.47
2024-02-13T10:16:51.839Z,60.66
2024-02-13T10:19:22.656Z,57.87
2024-02-13T10:21:52.779Z,57.87
2024-02-13T10:24:24.980Z,58.21
2024-02-13T10:26:55.041Z,58.73
2024-02-13T10:29:24.416Z,59.78
2024-02-13T10:31:55.430Z,59.53
2024-02-13T10:34:24.689Z,59.53
2024-02-13T10:36:54.253Z,58.77
2024-02-13T10:39:25.775Z,58.92
2024-02-13T10:41:58.621Z,59.44
2024-02-13T10:44:30.185Z,59.04
2024-02-13T10:47:01.309Z,60.86
2024-02-13T10:49:51.596Z,61.80
2024-02-13T10:52:24.712Z,60.71
2024-02-13T10:54:54.871Z,60.71
2024-02-13T10:57:24.638Z,61.14
2024-02-13T10:59:54.380Z,61.25
2024-02-13T11:02:24.012Z,62.66
2024-02-13T11:04:54.268Z,62.54
2024-02-13T11:07:23.631Z,61.03
2024-02-13T11:09:54.474Z,58.40
2024-02-13T11:12:24.164Z,57.01
2024-02-13T11:14:53.496Z,56.06
2024-02-13T11:17:24.725Z,56.27
2024-02-13T11:19:58.115Z,59.38
2024-02-13T11:22:38.794Z,61.15
2024-02-13T11:25:10.756Z,60.66
2024-02-13T11:27:45.412Z,62.23
2024-02-13T11:30:27.469Z,62.53
2024-02-13T11:33:02.902Z,62.93
2024-02-13T11:35:42.954Z,62.32
2024-02-13T11:38:13.755Z,62.41
2024-02-13T11:40:45.151Z,62.88
2024-02-13T11:43:21.821Z,62.95
2024-02-13T11:45:51.672Z,63.26
2024-02-13T11:48:23.127Z,63.24
2024-02-13T11:50:52.566Z,61.61
2024-02-13T11:53:22.075Z,60.87
2024-02-13T11:55:52.911Z,60.42
2024-02-13T11:58:23.586Z,60.42
2024-02-13T12:01:06.672Z,59.75
2024-02-13T12:03:37.031Z,59.44
2024-02-13T12:06:07.474Z,59.44
2024-02-13T12:08:40.117Z,57.58
2024-02-13T12:11:10.199Z,59.62
2024-02-13T12:13:40.183Z,57.95
2024-02-13T12:16:10.566Z,56.88
2024-02-13T12:18:41.133Z,56.13
2024-02-13T12:21:12.879Z,56.13
2024-02-13T12:23:50.392Z,57.07
2024-02-13T12:26:19.857Z,54.97
2024-02-13T12:28:59.428Z,54.98
2024-02-13T12:31:31.018Z,54.98
2024-02-13T12:34:08.174Z,54.84
2024-02-13T12:36:39.582Z,54.73
2024-02-13T12:39:16.839Z,54.71
2024-02-13T12:41:47.001Z,50.84
2024-02-13T12:44:16.718Z,50.84
2024-02-13T12:46:47.113Z,52.75
2024-02-13T12:49:18.081Z,52.75
2024-02-13T12:51:47.985Z,51.80
2024-02-13T12:54:17.349Z,52.64
2024-02-13T12:56:47.940Z,52.64
2024-02-13T12:59:18.924Z,53.36
2024-02-13T13:01:48.403Z,52.39
2024-02-13T13:04:18.145Z,52.08
2024-02-13T13:06:48.157Z,52.14
2024-02-13T13:09:26.361Z,52.52
2024-02-13T13:11:50.496Z,49.81
2024-02-13T13:14:21.627Z,49.18
2024-02-13T13:16:52.745Z,51.02
2024-02-13T13:19:24.167Z,49.23
2024-02-13T13:21:54.261Z,52.62
2024-02-13T13:24:24.244Z,52.46
2024-02-13T13:26:54.954Z,53.53
2024-02-13T13:29:24.588Z,54.17
2024-02-13T13:31:53.973Z,54.13
2024-02-13T13:34:25.247Z,54.13
2024-02-13T13:36:56.466Z,54.44
2024-02-13T13:39:27.502Z,54.44
2024-02-13T13:41:59.134Z,52.58
2024-02-13T13:44:29.993Z,53.83
2024-02-13T13:46:59.347Z,53.22
2024-02-13T13:49:28.649Z,53.69
2024-02-13T13:51:57.927Z,52.49
2024-02-13T13:54:27.216Z,53.47
2024-02-13T13:56:57.220Z,53.47
2024-02-13T13:59:26.666Z,54.01
2024-02-13T14:01:57.617Z,51.44
2024-02-13T14:04:27.595Z,51.44
2024-02-13T14:06:57.006Z,52.18
2024-02-13T14:09:26.409Z,52.13
2024-02-13T14:11:55.840Z,52.58
2024-02-13T14:14:25.249Z,51.32
2024-02-13T14:16:55.774Z,51.09
2024-02-13T14:19:25.370Z,51.03
2024-02-13T14:21:54.748Z,51.06
2024-02-13T14:24:24.069Z,52.39
2024-02-13T14:26:53.556Z,52.87
2024-02-13T14:29:23.588Z,51.01
2024-02-13T14:31:53.080Z,51.01
2024-02-13T14:34:24.079Z,52.32
2024-02-13T14:36:53.546Z,53.39
2024-02-13T14:39:23.186Z,52.13
2024-02-13T14:41:54.172Z,52.42
2024-02-13T14:44:23.539Z,52.81
2024-02-13T14:46:55.344Z,52.81
2024-02-13T14:49:26.447Z,53.44
2024-02-13T14:51:56.033Z,54.65
2024-02-13T14:54:25.385Z,53.52
2024-02-13T14:56:54.885Z,54.22
2024-02-13T14:59:26.277Z,54.22
2024-02-13T15:01:56.195Z,54.49
2024-02-13T15:04:25.653Z,53.85
2024-02-13T15:06:54.988Z,54.23
2024-02-13T15:09:24.274Z,54.23
2024-02-13T15:11:53.703Z,54.58
2024-02-13T15:14:24.006Z,54.17
2024-02-13T15:16:53.732Z,54.71
2024-02-13T15:19:26.570Z,55.24
2024-02-13T15:21:55.249Z,55.24
2024-02-13T15:24:25.359Z,54.83
2024-02-13T15:26:55.281Z,55.14
2024-02-13T15:29:25.539Z,55.48
2024-02-13T15:31:55.284Z,55.63
2024-02-13T15:34:24.721Z,55.59
2024-02-13T15:37:07.509Z,57.65
2024-02-13T15:39:54.786Z,57.65
2024-02-13T15:42:44.781Z,57.68
2024-02-13T15:45:31.586Z,57.33
2024-02-13T15:48:01.359Z,57.33
2024-02-13T15:50:30.806Z,57.42
2024-02-13T15:53:01.168Z,58.11
2024-02-13T15:55:31.587Z,57.08
2024-02-13T15:58:01.103Z,57.40
2024-02-13T16:00:31.812Z,58.93
2024-02-13T16:03:04.501Z,58.93
2024-02-13T16:05:35.294Z,59.25
2024-02-13T16:08:06.451Z,59.25
2024-02-13T16:10:36.022Z,59.25
2024-02-13T16:13:05.662Z,58.79
2024-02-13T16:15:35.962Z,58.90
2024-02-13T16:18:05.662Z,59.42
2024-02-13T16:20:35.132Z,59.42
2024-02-13T16:23:05.803Z,59.94
2024-02-13T16:25:35.869Z,59.65
2024-02-13T16:28:06.924Z,59.89
2024-02-13T16:30:37.007Z,60.62
2024-02-13T16:33:08.173Z,60.19
2024-02-13T16:35:37.805Z,60.89
2024-02-13T16:38:07.129Z,60.89
2024-02-13T16:40:36.760Z,61.11
2024-02-13T16:43:06.165Z,62.12
2024-02-13T16:45:35.590Z,62.15
2024-02-13T16:48:05.537Z,62.75
2024-02-13T16:50:35.087Z,63.10
2024-02-13T16:53:05.827Z,63.78
2024-02-13T16:55:36.774Z,63.82
2024-02-13T16:58:07.263Z,63.83
2024-02-13T17:00:36.987Z,63.71
2024-02-13T17:03:08.399Z,64.33
2024-02-13T17:05:39.570Z,64.90
2024-02-13T17:08:10.700Z,65.76
2024-02-13T17:10:40.106Z,68.47
2024-02-13T17:13:09.780Z,68.47
2024-02-13T17:15:39.122Z,69.28
2024-02-13T17:18:08.472Z,69.57
2024-02-13T17:20:37.864Z,69.57
2024-02-13T17:23:09.282Z,71.17
2024-02-13T17:25:38.690Z,71.17
2024-02-13T17:28:08.094Z,72.28
2024-02-13T17:30:37.441Z,72.61
2024-02-13T17:33:06.998Z,72.61
2024-02-13T17:35:36.372Z,72.30
2024-02-13T17:38:06.019Z,73.23
2024-02-13T17:40:35.282Z,73.04
2024-02-13T17:43:06.062Z,73.10
2024-02-13T17:45:36.207Z,74.41
2024-02-13T17:48:05.814Z,75.10
2024-02-13T17:50:35.092Z,75.07
2024-02-13T17:53:04.491Z,75.29
2024-02-13T17:55:35.299Z,75.49
2024-02-13T17:58:04.995Z,75.66
2024-02-13T18:00:35.831Z,75.59
2024-02-13T18:03:05.566Z,76.48
2024-02-13T18:05:34.997Z,77.04
2024-02-13T18:08:05.401Z,77.04
2024-02-13T18:10:34.985Z,76.57
2024-02-13T18:13:06.066Z,76.52
2024-02-13T18:15:35.452Z,76.52
2024-02-13T18:18:06.669Z,76.67
2024-02-13T18:20:36.971Z,76.87
2024-02-13T18:23:08.011Z,77.22
2024-02-13T18:25:37.674Z,77.62
2024-02-13T18:28:07.308Z,77.62
2024-02-13T18:30:36.752Z,77.65
2024-02-13T18:33:10.922Z,77.66
2024-02-13T18:35:42.378Z,77.61
2024-02-13T18:38:11.748Z,77.17
2024-02-13T18:40:41.107Z,77.74
2024-02-13T18:43:10.378Z,77.21
2024-02-13T18:45:39.742Z,77.43
2024-02-13T18:48:09.452Z,77.39
2024-02-13T18:50:39.940Z,77.38
2024-02-13T18:53:09.473Z,77.20
2024-02-13T18:55:38.745Z,77.47
2024-02-13T18:58:08.656Z,77.11
2024-02-13T19:00:38.728Z,77.33
2024-02-13T19:03:08.966Z,77.18
2024-02-13T19:05:41.726Z,76.90
2024-02-13T19:08:11.545Z,76.99
2024-02-13T19:10:41.760Z,77.16
2024-02-13T19:13:11.026Z,76.90
2024-02-13T19:15:40.345Z,77.23
2024-02-13T19:18:16.856Z,77.23
2024-02-13T19:20:46.345Z,76.75
2024-02-13T19:23:17.591Z,76.56
2024-02-13T19:25:47.788Z,76.53
2024-02-13T19:28:18.109Z,76.30
2024-02-13T19:30:49.210Z,75.83
2024-02-13T19:33:19.151Z,75.59
2024-02-13T19:35:49.806Z,75.27
2024-02-13T19:38:20.436Z,75.10
2024-02-13T19:40:51.833Z,75.15
2024-02-13T19:43:21.317Z,74.79
2024-02-13T19:45:50.720Z,74.52
2024-02-13T19:48:20.343Z,74.73
2024-02-13T19:50:49.689Z,74.71
2024-02-13T19:53:19.099Z,74.39
2024-02-13T19:55:48.365Z,74.52
2024-02-13T19:58:17.621Z,74.10
2024-02-13T20:00:46.997Z,74.18
2024-02-13T20:03:16.356Z,73.72
2024-02-13T20:05:45.853Z,73.70
2024-02-13T20:08:15.926Z,73.64
2024-02-13T20:10:49.202Z,73.87
2024-02-13T20:13:19.107Z,73.81
2024-02-13T20:15:48.678Z,73.88
2024-02-13T20:18:20.240Z,73.81
2024-02-13T20:20:49.851Z,73.67
2024-02-13T20:23:19.930Z,73.67
2024-02-13T20:25:50.382Z,73.09
2024-02-13T20:28:20.031Z,73.00
2024-02-13T20:30:49.326Z,72.73
2024-02-13T20:33:19.603Z,72.73
2024-02-13T20:36:01.186Z,72.34
2024-02-13T20:38:31.660Z,72.34
2024-02-13T20:41:00.987Z,72.17
2024-02-13T20:43:30.407Z,72.07
2024-02-13T20:45:59.723Z,72.23
2024-02-13T20:48:29.866Z,72.40
2024-02-13T20:50:59.189Z,71.72
2024-02-13T20:53:28.974Z,71.46
2024-02-13T20:55:59.984Z,71.84
2024-02-13T20:58:32.174Z,71.33
2024-02-13T21:01:02.105Z,71.21
2024-02-13T21:03:31.671Z,72.12
2024-02-13T21:06:01.228Z,72.94
2024-02-13T21:08:30.744Z,74.36
2024-02-13T21:11:00.113Z,74.71
2024-02-13T21:13:29.456Z,76.06
2024-02-13T21:15:59.145Z,77.22
2024-02-13T21:18:28.606Z,78.63
2024-02-13T21:21:11.542Z,79.92
2024-02-13T21:23:42.587Z,80.43
2024-02-13T21:26:11.902Z,81.06
2024-02-13T21:28:41.317Z,80.96
2024-02-13T21:31:10.682Z,81.37
2024-02-13T21:33:40.141Z,81.65
2024-02-13T21:36:10.790Z,81.89
2024-02-13T21:38:40.194Z,82.65
2024-02-13T21:41:10.116Z,82.78
2024-02-13T21:43:39.538Z,82.95
2024-02-13T21:46:09.140Z,82.97
2024-02-13T21:48:38.603Z,83.36
2024-02-13T21:51:08.233Z,83.79
2024-02-13T21:53:38.069Z,83.99
2024-02-13T21:56:07.761Z,84.00
2024-02-13T21:58:37.457Z,84.05
2024-02-13T22:01:07.022Z,84.01
2024-02-13T22:03:36.733Z,84.00
2024-02-13T22:06:06.812Z,84.12
2024-02-13T22:08:36.345Z,83.94
2024-02-13T22:11:05.752Z,83.71
2024-02-13T22:13:35.073Z,83.87
2024-02-13T22:16:05.357Z,84.09
2024-02-13T22:18:34.708Z,84.11
2024-02-13T22:21:04.290Z,84.11
2024-02-13T22:23:34.273Z,84.12
2024-02-13T22:26:06.438Z,83.85
2024-02-13T22:28:35.761Z,83.88
2024-02-13T22:31:06.388Z,83.96
2024-02-13T22:33:35.986Z,83.76
2024-02-13T22:36:06.683Z,84.02
2024-02-13T22:38:36.108Z,84.19
2024-02-13T22:41:05.946Z,84.44
2024-02-13T22:43:35.334Z,84.56
2024-02-13T22:46:04.938Z,84.65
2024-02-13T22:48:34.994Z,84.69
2024-02-13T22:51:04.521Z,84.30
2024-02-13T22:53:33.840Z,84.56
2024-02-13T22:56:04.875Z,84.71
2024-02-13T22:58:34.171Z,84.91
2024-02-13T23:01:04.074Z,84.49
2024-02-13T23:03:34.069Z,84.61
2024-02-13T23:06:05.560Z,84.52
2024-02-13T23:08:35.986Z,84.58
2024-02-13T23:11:07.081Z,84.55
2024-02-13T23:13:42.440Z,84.54
2024-02-13T23:16:08.325Z,84.43
2024-02-13T23:18:38.384Z,84.31
2024-02-13T23:21:08.173Z,84.10
2024-02-13T23:23:37.674Z,83.81
2024-02-13T23:26:07.573Z,83.82
2024-02-13T23:28:48.314Z,83.80
2024-02-13T23:31:08.639Z,83.75
2024-02-13T23:33:39.478Z,83.54
2024-02-13T23:36:10.127Z,83.42
2024-02-13T23:38:39.632Z,83.35
2024-02-13T23:41:08.969Z,83.73
2024-02-13T23:43:38.282Z,83.70
2024-02-13T23:46:08.331Z,83.60
2024-02-13T23:48:38.416Z,83.30
2024-02-13T23:51:08.047Z,83.49
2024-02-13T23:53:37.800Z,83.51
2024-02-13T23:56:07.825Z,83.33
2024-02-13T23:58:37.260Z,83.26
